sensor_id;sensor_type;location;lat;lon;timestamp;P1;durP1;ratioP1;P2;durP2;ratioP2
7657;SDS011;8462;53.156;8.220;2022-10-16T00:01:04;6.07;;;2.90;;
7657;SDS011;8462;53.156;8.220;2022-10-16T00:03:32;6.00;;;2.77;;
7657;SDS011;8462;53.156;8.220;2022-10-16T00:06:00;5.50;;;2.50;;
7657;SDS011;8462;53.156;8.220;2022-10-16T00:08:27;3.70;;;2.10;;
7657;SDS011;8462;53.156;8.220;2022-10-16T00:10:59;3.30;;;1.83;;
7657;SDS011;8462;53.156;8.220;2022-10-16T00:13:27;4.93;;;2.90;;
7657;SDS011;8462;53.156;8.220;2022-10-16T00:15:55;3.27;;;2.77;;
7657;SDS011;8462;53.156;8.220;2022-10-16T00:18:22;4.60;;;2.23;;
7657;SDS011;8462;53.156;8.220;2022-10-16T00:20:50;3.93;;;2.10;;
7657;SDS011;8462;53.156;8.220;2022-10-16T00:23:17;3.10;;;2.17;;
7657;SDS011;8462;53.156;8.220;2022-10-16T00:25:44;3.37;;;2.23;;
7657;SDS011;8462;53.156;8.220;2022-10-16T00:28:12;5.17;;;2.53;;
7657;SDS011;8462;53.156;8.220;2022-10-16T00:30:39;3.50;;;2.27;;
7657;SDS011;8462;53.156;8.220;2022-10-16T00:33:06;2.70;;;1.90;;
7657;SDS011;8462;53.156;8.220;2022-10-16T00:35:33;7.00;;;2.50;;
7657;SDS011;8462;53.156;8.220;2022-10-16T00:38:00;4.43;;;2.33;;
7657;SDS011;8462;53.156;8.220;2022-10-16T00:40:27;2.67;;;1.73;;
7657;SDS011;8462;53.156;8.220;2022-10-16T00:42:55;5.00;;;2.17;;
7657;SDS011;8462;53.156;8.220;2022-10-16T00:45:23;4.80;;;2.27;;
7657;SDS011;8462;53.156;8.220;2022-10-16T00:47:50;3.60;;;2.17;;
7657;SDS011;8462;53.156;8.220;2022-10-16T00:50:22;3.60;;;2.07;;
7657;SDS011;8462;53.156;8.220;2022-10-16T00:52:54;2.47;;;1.80;;
7657;SDS011;8462;53.156;8.220;2022-10-16T00:55:23;6.00;;;2.07;;
7657;SDS011;8462;53.156;8.220;2022-10-16T00:57:50;2.43;;;1.90;;
7657;SDS011;8462;53.156;8.220;2022-10-16T01:00:19;2.73;;;2.00;;
7657;SDS011;8462;53.156;8.220;2022-10-16T01:02:53;5.07;;;2.07;;
7657;SDS011;8462;53.156;8.220;2022-10-16T01:05:21;4.17;;;1.90;;
7657;SDS011;8462;53.156;8.220;2022-10-16T01:07:52;5.60;;;2.20;;
7657;SDS011;8462;53.156;8.220;2022-10-16T01:10:26;3.80;;;1.70;;
7657;SDS011;8462;53.156;8.220;2022-10-16T01:12:59;2.90;;;1.90;;
7657;SDS011;8462;53.156;8.220;2022-10-16T01:15:29;3.83;;;1.80;;
7657;SDS011;8462;53.156;8.220;2022-10-16T01:18:01;5.37;;;2.27;;
7657;SDS011;8462;53.156;8.220;2022-10-16T01:20:35;3.53;;;1.80;;
7657;SDS011;8462;53.156;8.220;2022-10-16T01:23:07;4.00;;;1.90;;
7657;SDS011;8462;53.156;8.220;2022-10-16T01:28:41;5.33;;;1.50;;
7657;SDS011;8462;53.156;8.220;2022-10-16T01:31:15;5.77;;;1.90;;
7657;SDS011;8462;53.156;8.220;2022-10-16T01:33:45;4.67;;;2.13;;
7657;SDS011;8462;53.156;8.220;2022-10-16T01:36:18;2.33;;;1.50;;
7657;SDS011;8462;53.156;8.220;2022-10-16T01:38:49;3.70;;;1.70;;
7657;SDS011;8462;53.156;8.220;2022-10-16T01:41:21;6.03;;;2.10;;
7657;SDS011;8462;53.156;8.220;2022-10-16T01:43:53;2.13;;;1.73;;
7657;SDS011;8462;53.156;8.220;2022-10-16T01:46:25;3.93;;;1.83;;
7657;SDS011;8462;53.156;8.220;2022-10-16T01:48:53;4.37;;;1.70;;
7657;SDS011;8462;53.156;8.220;2022-10-16T01:51:21;7.63;;;1.93;;
7657;SDS011;8462;53.156;8.220;2022-10-16T01:53:52;4.17;;;1.90;;
7657;SDS011;8462;53.156;8.220;2022-10-16T01:56:21;2.20;;;1.60;;
7657;SDS011;8462;53.156;8.220;2022-10-16T01:58:51;3.37;;;1.60;;
7657;SDS011;8462;53.156;8.220;2022-10-16T02:01:22;4.27;;;2.00;;
7657;SDS011;8462;53.156;8.220;2022-10-16T02:03:53;5.87;;;2.00;;
7657;SDS011;8462;53.156;8.220;2022-10-16T02:06:22;3.57;;;1.50;;
7657;SDS011;8462;53.156;8.220;2022-10-16T02:08:50;5.27;;;2.13;;
7657;SDS011;8462;53.156;8.220;2022-10-16T02:11:17;7.27;;;2.27;;
7657;SDS011;8462;53.156;8.220;2022-10-16T02:13:45;4.60;;;2.03;;
7657;SDS011;8462;53.156;8.220;2022-10-16T02:16:18;2.33;;;1.87;;
7657;SDS011;8462;53.156;8.220;2022-10-16T02:18:45;2.73;;;1.93;;
7657;SDS011;8462;53.156;8.220;2022-10-16T02:21:14;3.43;;;1.70;;
7657;SDS011;8462;53.156;8.220;2022-10-16T02:23:47;2.80;;;1.87;;
7657;SDS011;8462;53.156;8.220;2022-10-16T02:26:23;5.87;;;1.80;;
7657;SDS011;8462;53.156;8.220;2022-10-16T02:28:55;7.40;;;1.97;;
7657;SDS011;8462;53.156;8.220;2022-10-16T02:31:28;3.13;;;1.80;;
7657;SDS011;8462;53.156;8.220;2022-10-16T02:33:59;2.70;;;2.00;;
7657;SDS011;8462;53.156;8.220;2022-10-16T02:36:28;7.20;;;1.73;;
7657;SDS011;8462;53.156;8.220;2022-10-16T02:38:55;4.30;;;2.00;;
7657;SDS011;8462;53.156;8.220;2022-10-16T02:41:22;4.90;;;2.20;;
7657;SDS011;8462;53.156;8.220;2022-10-16T02:43:49;2.37;;;1.90;;
7657;SDS011;8462;53.156;8.220;2022-10-16T02:46:16;3.87;;;1.80;;
7657;SDS011;8462;53.156;8.220;2022-10-16T02:48:45;5.10;;;2.00;;
7657;SDS011;8462;53.156;8.220;2022-10-16T02:51:12;3.90;;;1.80;;
7657;SDS011;8462;53.156;8.220;2022-10-16T02:53:39;4.33;;;2.00;;
7657;SDS011;8462;53.156;8.220;2022-10-16T02:56:06;4.73;;;1.80;;
7657;SDS011;8462;53.156;8.220;2022-10-16T02:58:33;2.03;;;1.60;;
7657;SDS011;8462;53.156;8.220;2022-10-16T03:01:00;2.83;;;2.00;;
7657;SDS011;8462;53.156;8.220;2022-10-16T03:03:27;4.97;;;2.00;;
7657;SDS011;8462;53.156;8.220;2022-10-16T03:05:55;5.43;;;2.03;;
7657;SDS011;8462;53.156;8.220;2022-10-16T03:08:22;2.23;;;1.50;;
7657;SDS011;8462;53.156;8.220;2022-10-16T03:10:50;2.73;;;1.57;;
7657;SDS011;8462;53.156;8.220;2022-10-16T03:13:17;3.90;;;2.17;;
7657;SDS011;8462;53.156;8.220;2022-10-16T03:15:45;3.20;;;1.47;;
7657;SDS011;8462;53.156;8.220;2022-10-16T03:18:12;2.97;;;1.70;;
7657;SDS011;8462;53.156;8.220;2022-10-16T03:20:39;5.50;;;1.63;;
7657;SDS011;8462;53.156;8.220;2022-10-16T03:23:07;2.47;;;1.50;;
7657;SDS011;8462;53.156;8.220;2022-10-16T03:25:34;3.73;;;1.33;;
7657;SDS011;8462;53.156;8.220;2022-10-16T03:28:01;4.67;;;1.90;;
7657;SDS011;8462;53.156;8.220;2022-10-16T03:30:28;4.13;;;1.50;;
7657;SDS011;8462;53.156;8.220;2022-10-16T03:32:55;3.50;;;1.80;;
7657;SDS011;8462;53.156;8.220;2022-10-16T03:35:22;2.47;;;1.60;;
7657;SDS011;8462;53.156;8.220;2022-10-16T03:37:50;3.70;;;1.40;;
7657;SDS011;8462;53.156;8.220;2022-10-16T03:40:19;4.07;;;2.07;;
7657;SDS011;8462;53.156;8.220;2022-10-16T03:42:45;3.83;;;1.50;;
7657;SDS011;8462;53.156;8.220;2022-10-16T03:45:12;7.93;;;1.90;;
7657;SDS011;8462;53.156;8.220;2022-10-16T03:47:39;4.50;;;1.77;;
7657;SDS011;8462;53.156;8.220;2022-10-16T03:50:07;2.63;;;2.03;;
7657;SDS011;8462;53.156;8.220;2022-10-16T03:52:34;3.67;;;2.20;;
7657;SDS011;8462;53.156;8.220;2022-10-16T03:55:01;8.63;;;2.23;;
7657;SDS011;8462;53.156;8.220;2022-10-16T03:57:30;4.23;;;2.70;;
7657;SDS011;8462;53.156;8.220;2022-10-16T03:59:57;5.33;;;2.20;;
7657;SDS011;8462;53.156;8.220;2022-10-16T04:02:24;7.17;;;2.60;;
7657;SDS011;8462;53.156;8.220;2022-10-16T04:04:51;5.37;;;2.37;;
7657;SDS011;8462;53.156;8.220;2022-10-16T04:07:18;3.70;;;2.30;;
7657;SDS011;8462;53.156;8.220;2022-10-16T04:09:45;3.80;;;2.63;;
7657;SDS011;8462;53.156;8.220;2022-10-16T04:12:12;3.13;;;2.37;;
7657;SDS011;8462;53.156;8.220;2022-10-16T04:14:40;5.83;;;2.67;;
7657;SDS011;8462;53.156;8.220;2022-10-16T04:17:07;5.07;;;2.77;;
7657;SDS011;8462;53.156;8.220;2022-10-16T04:19:34;5.23;;;3.00;;
7657;SDS011;8462;53.156;8.220;2022-10-16T04:22:02;4.40;;;3.07;;
7657;SDS011;8462;53.156;8.220;2022-10-16T04:24:29;4.37;;;3.00;;
7657;SDS011;8462;53.156;8.220;2022-10-16T04:26:56;4.30;;;3.20;;
7657;SDS011;8462;53.156;8.220;2022-10-16T04:29:22;4.67;;;2.73;;
7657;SDS011;8462;53.156;8.220;2022-10-16T04:31:51;3.17;;;2.83;;
7657;SDS011;8462;53.156;8.220;2022-10-16T04:34:18;5.70;;;2.87;;
7657;SDS011;8462;53.156;8.220;2022-10-16T04:36:46;6.83;;;3.43;;
7657;SDS011;8462;53.156;8.220;2022-10-16T04:39:13;7.63;;;3.90;;
7657;SDS011;8462;53.156;8.220;2022-10-16T04:41:41;7.07;;;3.43;;
7657;SDS011;8462;53.156;8.220;2022-10-16T04:44:08;7.07;;;3.73;;
7657;SDS011;8462;53.156;8.220;2022-10-16T04:46:34;5.83;;;3.70;;
7657;SDS011;8462;53.156;8.220;2022-10-16T04:49:03;6.77;;;3.97;;
7657;SDS011;8462;53.156;8.220;2022-10-16T04:51:30;5.67;;;3.70;;
7657;SDS011;8462;53.156;8.220;2022-10-16T04:53:57;5.30;;;3.83;;
7657;SDS011;8462;53.156;8.220;2022-10-16T04:56:24;5.97;;;3.53;;
7657;SDS011;8462;53.156;8.220;2022-10-16T04:58:51;8.57;;;4.20;;
7657;SDS011;8462;53.156;8.220;2022-10-16T05:01:18;7.17;;;4.20;;
7657;SDS011;8462;53.156;8.220;2022-10-16T05:03:45;8.23;;;4.27;;
7657;SDS011;8462;53.156;8.220;2022-10-16T05:06:13;8.07;;;4.70;;
7657;SDS011;8462;53.156;8.220;2022-10-16T05:08:40;7.70;;;4.07;;
7657;SDS011;8462;53.156;8.220;2022-10-16T05:11:07;5.17;;;4.37;;
7657;SDS011;8462;53.156;8.220;2022-10-16T05:13:34;7.90;;;3.80;;
7657;SDS011;8462;53.156;8.220;2022-10-16T05:16:01;7.83;;;4.30;;
7657;SDS011;8462;53.156;8.220;2022-10-16T05:18:28;6.10;;;4.23;;
7657;SDS011;8462;53.156;8.220;2022-10-16T05:20:55;6.97;;;4.80;;
7657;SDS011;8462;53.156;8.220;2022-10-16T05:23:23;6.63;;;4.33;;
7657;SDS011;8462;53.156;8.220;2022-10-16T05:25:53;8.37;;;5.27;;
7657;SDS011;8462;53.156;8.220;2022-10-16T05:28:23;10.80;;;5.63;;
7657;SDS011;8462;53.156;8.220;2022-10-16T05:30:50;10.13;;;4.83;;
7657;SDS011;8462;53.156;8.220;2022-10-16T05:33:19;9.57;;;5.10;;
7657;SDS011;8462;53.156;8.220;2022-10-16T05:35:47;9.17;;;5.03;;
7657;SDS011;8462;53.156;8.220;2022-10-16T05:38:14;5.63;;;4.40;;
7657;SDS011;8462;53.156;8.220;2022-10-16T05:40:43;7.07;;;4.40;;
7657;SDS011;8462;53.156;8.220;2022-10-16T05:43:17;7.87;;;4.47;;
7657;SDS011;8462;53.156;8.220;2022-10-16T05:45:44;7.23;;;4.87;;
7657;SDS011;8462;53.156;8.220;2022-10-16T05:48:20;7.27;;;5.10;;
7657;SDS011;8462;53.156;8.220;2022-10-16T05:50:47;8.83;;;5.37;;
7657;SDS011;8462;53.156;8.220;2022-10-16T05:53:14;7.90;;;5.10;;
7657;SDS011;8462;53.156;8.220;2022-10-16T05:55:41;9.23;;;5.43;;
7657;SDS011;8462;53.156;8.220;2022-10-16T05:58:09;7.93;;;5.20;;
7657;SDS011;8462;53.156;8.220;2022-10-16T06:00:36;6.70;;;4.57;;
7657;SDS011;8462;53.156;8.220;2022-10-16T06:03:03;5.13;;;4.63;;
7657;SDS011;8462;53.156;8.220;2022-10-16T06:05:31;10.43;;;4.80;;
7657;SDS011;8462;53.156;8.220;2022-10-16T06:07:58;11.90;;;6.73;;
7657;SDS011;8462;53.156;8.220;2022-10-16T06:10:25;9.80;;;5.60;;
7657;SDS011;8462;53.156;8.220;2022-10-16T06:12:54;8.90;;;5.27;;
7657;SDS011;8462;53.156;8.220;2022-10-16T06:15:23;6.07;;;4.17;;
7657;SDS011;8462;53.156;8.220;2022-10-16T06:17:50;7.53;;;4.80;;
7657;SDS011;8462;53.156;8.220;2022-10-16T06:20:17;5.07;;;4.27;;
7657;SDS011;8462;53.156;8.220;2022-10-16T06:22:43;6.67;;;4.73;;
7657;SDS011;8462;53.156;8.220;2022-10-16T06:25:10;6.30;;;4.90;;
7657;SDS011;8462;53.156;8.220;2022-10-16T06:27:38;10.67;;;4.60;;
7657;SDS011;8462;53.156;8.220;2022-10-16T06:30:06;5.00;;;4.33;;
7657;SDS011;8462;53.156;8.220;2022-10-16T06:32:35;5.97;;;3.93;;
7657;SDS011;8462;53.156;8.220;2022-10-16T06:35:02;8.43;;;5.20;;
7657;SDS011;8462;53.156;8.220;2022-10-16T06:37:30;7.60;;;4.37;;
7657;SDS011;8462;53.156;8.220;2022-10-16T06:39:57;6.10;;;4.23;;
7657;SDS011;8462;53.156;8.220;2022-10-16T06:42:25;6.07;;;4.50;;
7657;SDS011;8462;53.156;8.220;2022-10-16T06:44:52;7.30;;;4.53;;
7657;SDS011;8462;53.156;8.220;2022-10-16T06:47:19;7.73;;;4.50;;
7657;SDS011;8462;53.156;8.220;2022-10-16T06:49:47;7.10;;;4.50;;
7657;SDS011;8462;53.156;8.220;2022-10-16T06:52:14;7.57;;;4.20;;
7657;SDS011;8462;53.156;8.220;2022-10-16T06:54:41;4.60;;;3.40;;
7657;SDS011;8462;53.156;8.220;2022-10-16T06:57:07;6.57;;;4.20;;
7657;SDS011;8462;53.156;8.220;2022-10-16T06:59:34;5.20;;;4.00;;
7657;SDS011;8462;53.156;8.220;2022-10-16T07:02:01;8.10;;;4.40;;
7657;SDS011;8462;53.156;8.220;2022-10-16T07:04:28;6.10;;;3.90;;
7657;SDS011;8462;53.156;8.220;2022-10-16T07:06:57;7.00;;;3.40;;
7657;SDS011;8462;53.156;8.220;2022-10-16T07:09:26;5.00;;;3.73;;
7657;SDS011;8462;53.156;8.220;2022-10-16T07:11:53;9.23;;;3.93;;
7657;SDS011;8462;53.156;8.220;2022-10-16T07:14:20;5.43;;;3.67;;
7657;SDS011;8462;53.156;8.220;2022-10-16T07:16:47;4.80;;;3.50;;
7657;SDS011;8462;53.156;8.220;2022-10-16T07:19:14;7.93;;;3.80;;
7657;SDS011;8462;53.156;8.220;2022-10-16T07:21:42;5.07;;;3.50;;
7657;SDS011;8462;53.156;8.220;2022-10-16T07:24:12;8.27;;;3.53;;
7657;SDS011;8462;53.156;8.220;2022-10-16T07:26:40;5.40;;;3.77;;
7657;SDS011;8462;53.156;8.220;2022-10-16T07:29:11;4.40;;;2.93;;
7657;SDS011;8462;53.156;8.220;2022-10-16T07:31:40;5.73;;;3.17;;
7657;SDS011;8462;53.156;8.220;2022-10-16T07:34:10;4.07;;;3.07;;
7657;SDS011;8462;53.156;8.220;2022-10-16T07:36:38;5.07;;;3.47;;
7657;SDS011;8462;53.156;8.220;2022-10-16T07:39:04;5.50;;;3.07;;
7657;SDS011;8462;53.156;8.220;2022-10-16T07:41:33;6.97;;;3.27;;
7657;SDS011;8462;53.156;8.220;2022-10-16T07:44:02;5.90;;;4.20;;
7657;SDS011;8462;53.156;8.220;2022-10-16T07:46:29;4.43;;;3.10;;
7657;SDS011;8462;53.156;8.220;2022-10-16T07:48:58;5.63;;;3.23;;
7657;SDS011;8462;53.156;8.220;2022-10-16T07:51:25;3.80;;;2.63;;
7657;SDS011;8462;53.156;8.220;2022-10-16T07:53:53;7.73;;;3.20;;
7657;SDS011;8462;53.156;8.220;2022-10-16T07:56:20;3.57;;;2.23;;
7657;SDS011;8462;53.156;8.220;2022-10-16T07:58:49;3.60;;;2.80;;
7657;SDS011;8462;53.156;8.220;2022-10-16T08:01:17;3.27;;;2.30;;
7657;SDS011;8462;53.156;8.220;2022-10-16T08:03:45;3.67;;;3.07;;
7657;SDS011;8462;53.156;8.220;2022-10-16T08:06:13;4.70;;;2.40;;
7657;SDS011;8462;53.156;8.220;2022-10-16T08:08:41;5.83;;;2.60;;
7657;SDS011;8462;53.156;8.220;2022-10-16T08:11:08;3.00;;;2.43;;
7657;SDS011;8462;53.156;8.220;2022-10-16T08:13:35;3.13;;;2.30;;
7657;SDS011;8462;53.156;8.220;2022-10-16T08:16:04;4.57;;;2.30;;
7657;SDS011;8462;53.156;8.220;2022-10-16T08:18:34;2.63;;;2.17;;
7657;SDS011;8462;53.156;8.220;2022-10-16T08:21:02;4.03;;;2.03;;
7657;SDS011;8462;53.156;8.220;2022-10-16T08:23:29;5.73;;;2.00;;
7657;SDS011;8462;53.156;8.220;2022-10-16T08:26:01;4.27;;;1.90;;
7657;SDS011;8462;53.156;8.220;2022-10-16T08:28:29;2.97;;;2.00;;
7657;SDS011;8462;53.156;8.220;2022-10-16T08:30:56;3.13;;;1.63;;
7657;SDS011;8462;53.156;8.220;2022-10-16T08:33:32;4.73;;;1.90;;
7657;SDS011;8462;53.156;8.220;2022-10-16T08:36:00;3.50;;;1.87;;
7657;SDS011;8462;53.156;8.220;2022-10-16T08:38:27;4.47;;;2.10;;
7657;SDS011;8462;53.156;8.220;2022-10-16T08:40:56;3.53;;;1.73;;
7657;SDS011;8462;53.156;8.220;2022-10-16T08:43:37;3.27;;;2.13;;
7657;SDS011;8462;53.156;8.220;2022-10-16T08:49:02;4.27;;;1.60;;
7657;SDS011;8462;53.156;8.220;2022-10-16T08:51:30;3.07;;;1.70;;
7657;SDS011;8462;53.156;8.220;2022-10-16T08:53:59;3.70;;;1.83;;
7657;SDS011;8462;53.156;8.220;2022-10-16T08:56:28;1.97;;;1.50;;
7657;SDS011;8462;53.156;8.220;2022-10-16T08:58:57;3.47;;;1.20;;
7657;SDS011;8462;53.156;8.220;2022-10-16T09:01:25;3.23;;;1.77;;
7657;SDS011;8462;53.156;8.220;2022-10-16T09:04:21;1.83;;;1.47;;
7657;SDS011;8462;53.156;8.220;2022-10-16T09:07:04;3.77;;;1.57;;
7657;SDS011;8462;53.156;8.220;2022-10-16T09:09:39;2.33;;;1.60;;
7657;SDS011;8462;53.156;8.220;2022-10-16T09:12:20;1.50;;;1.40;;
7657;SDS011;8462;53.156;8.220;2022-10-16T09:14:57;2.17;;;1.30;;
7657;SDS011;8462;53.156;8.220;2022-10-16T09:17:40;2.40;;;1.47;;
7657;SDS011;8462;53.156;8.220;2022-10-16T09:20:22;4.13;;;1.50;;
7657;SDS011;8462;53.156;8.220;2022-10-16T09:23:00;5.77;;;1.60;;
7657;SDS011;8462;53.156;8.220;2022-10-16T09:25:41;5.00;;;1.50;;
7657;SDS011;8462;53.156;8.220;2022-10-16T09:28:10;6.77;;;1.60;;
7657;SDS011;8462;53.156;8.220;2022-10-16T09:30:37;3.27;;;1.27;;
7657;SDS011;8462;53.156;8.220;2022-10-16T09:33:05;3.23;;;1.30;;
7657;SDS011;8462;53.156;8.220;2022-10-16T09:35:36;1.80;;;1.20;;
7657;SDS011;8462;53.156;8.220;2022-10-16T09:38:05;3.43;;;1.70;;
7657;SDS011;8462;53.156;8.220;2022-10-16T09:40:34;2.93;;;1.70;;
7657;SDS011;8462;53.156;8.220;2022-10-16T09:43:16;3.13;;;1.33;;
7657;SDS011;8462;53.156;8.220;2022-10-16T09:45:54;3.03;;;1.30;;
7657;SDS011;8462;53.156;8.220;2022-10-16T09:48:23;2.20;;;1.33;;
7657;SDS011;8462;53.156;8.220;2022-10-16T09:50:58;3.43;;;1.13;;
7657;SDS011;8462;53.156;8.220;2022-10-16T09:53:26;1.67;;;1.03;;
7657;SDS011;8462;53.156;8.220;2022-10-16T09:56:09;3.37;;;1.20;;
7657;SDS011;8462;53.156;8.220;2022-10-16T09:58:41;2.93;;;1.47;;
7657;SDS011;8462;53.156;8.220;2022-10-16T10:01:11;2.10;;;1.10;;
7657;SDS011;8462;53.156;8.220;2022-10-16T10:03:40;2.30;;;1.30;;
7657;SDS011;8462;53.156;8.220;2022-10-16T10:06:17;3.87;;;1.60;;
7657;SDS011;8462;53.156;8.220;2022-10-16T10:09:04;6.00;;;1.10;;
7657;SDS011;8462;53.156;8.220;2022-10-16T10:11:41;2.70;;;1.10;;
7657;SDS011;8462;53.156;8.220;2022-10-16T10:14:23;2.13;;;1.20;;
7657;SDS011;8462;53.156;8.220;2022-10-16T10:17:02;2.17;;;1.27;;
7657;SDS011;8462;53.156;8.220;2022-10-16T10:19:41;3.27;;;1.30;;
7657;SDS011;8462;53.156;8.220;2022-10-16T10:22:22;2.83;;;1.60;;
7657;SDS011;8462;53.156;8.220;2022-10-16T10:24:54;2.73;;;1.00;;
7657;SDS011;8462;53.156;8.220;2022-10-16T10:27:23;2.53;;;1.10;;
7657;SDS011;8462;53.156;8.220;2022-10-16T10:29:56;1.50;;;1.03;;
7657;SDS011;8462;53.156;8.220;2022-10-16T10:32:30;3.30;;;1.30;;
7657;SDS011;8462;53.156;8.220;2022-10-16T10:35:06;1.97;;;1.13;;
7657;SDS011;8462;53.156;8.220;2022-10-16T10:37:46;2.73;;;1.10;;
7657;SDS011;8462;53.156;8.220;2022-10-16T10:40:23;2.30;;;1.10;;
7657;SDS011;8462;53.156;8.220;2022-10-16T10:42:59;1.73;;;1.00;;
7657;SDS011;8462;53.156;8.220;2022-10-16T10:45:36;3.67;;;1.00;;
7657;SDS011;8462;53.156;8.220;2022-10-16T10:48:17;2.80;;;1.27;;
7657;SDS011;8462;53.156;8.220;2022-10-16T10:50:51;3.00;;;1.47;;
7657;SDS011;8462;53.156;8.220;2022-10-16T10:53:28;5.00;;;1.43;;
7657;SDS011;8462;53.156;8.220;2022-10-16T10:56:09;3.87;;;1.37;;
7657;SDS011;8462;53.156;8.220;2022-10-16T10:58:50;4.00;;;1.83;;
7657;SDS011;8462;53.156;8.220;2022-10-16T11:01:30;4.60;;;1.10;;
7657;SDS011;8462;53.156;8.220;2022-10-16T11:04:12;2.30;;;0.90;;
7657;SDS011;8462;53.156;8.220;2022-10-16T11:06:59;7.37;;;1.40;;
7657;SDS011;8462;53.156;8.220;2022-10-16T11:09:32;3.40;;;1.20;;
7657;SDS011;8462;53.156;8.220;2022-10-16T11:12:05;4.70;;;1.80;;
7657;SDS011;8462;53.156;8.220;2022-10-16T11:14:40;7.67;;;1.70;;
7657;SDS011;8462;53.156;8.220;2022-10-16T11:17:13;5.70;;;1.60;;
7657;SDS011;8462;53.156;8.220;2022-10-16T11:19:45;1.83;;;1.20;;
7657;SDS011;8462;53.156;8.220;2022-10-16T11:22:17;2.80;;;0.90;;
7657;SDS011;8462;53.156;8.220;2022-10-16T11:24:51;4.30;;;1.30;;
7657;SDS011;8462;53.156;8.220;2022-10-16T11:27:23;3.50;;;1.17;;
7657;SDS011;8462;53.156;8.220;2022-10-16T11:30:01;2.50;;;1.30;;
7657;SDS011;8462;53.156;8.220;2022-10-16T11:32:32;1.93;;;1.00;;
7657;SDS011;8462;53.156;8.220;2022-10-16T11:35:08;6.67;;;1.40;;
7657;SDS011;8462;53.156;8.220;2022-10-16T11:37:42;4.30;;;1.10;;
7657;SDS011;8462;53.156;8.220;2022-10-16T11:40:19;3.97;;;1.47;;
7657;SDS011;8462;53.156;8.220;2022-10-16T11:42:50;1.90;;;1.00;;
7657;SDS011;8462;53.156;8.220;2022-10-16T11:45:24;4.30;;;2.13;;
7657;SDS011;8462;53.156;8.220;2022-10-16T11:47:58;2.67;;;1.10;;
7657;SDS011;8462;53.156;8.220;2022-10-16T11:50:34;4.33;;;1.37;;
7657;SDS011;8462;53.156;8.220;2022-10-16T11:53:04;3.77;;;1.20;;
7657;SDS011;8462;53.156;8.220;2022-10-16T11:55:41;3.77;;;1.30;;
7657;SDS011;8462;53.156;8.220;2022-10-16T11:58:12;4.43;;;1.30;;
7657;SDS011;8462;53.156;8.220;2022-10-16T12:00:47;5.57;;;1.47;;
7657;SDS011;8462;53.156;8.220;2022-10-16T12:03:22;3.80;;;1.30;;
7657;SDS011;8462;53.156;8.220;2022-10-16T12:05:58;7.77;;;1.50;;
7657;SDS011;8462;53.156;8.220;2022-10-16T12:08:38;3.73;;;1.23;;
7657;SDS011;8462;53.156;8.220;2022-10-16T12:11:08;2.73;;;1.10;;
7657;SDS011;8462;53.156;8.220;2022-10-16T12:13:46;3.43;;;1.27;;
7657;SDS011;8462;53.156;8.220;2022-10-16T12:16:21;6.47;;;1.30;;
7657;SDS011;8462;53.156;8.220;2022-10-16T12:18:49;3.10;;;1.77;;
7657;SDS011;8462;53.156;8.220;2022-10-16T12:21:30;4.87;;;1.40;;
7657;SDS011;8462;53.156;8.220;2022-10-16T12:23:58;5.00;;;1.33;;
7657;SDS011;8462;53.156;8.220;2022-10-16T12:26:28;2.97;;;0.93;;
7657;SDS011;8462;53.156;8.220;2022-10-16T12:29:09;3.27;;;1.20;;
7657;SDS011;8462;53.156;8.220;2022-10-16T12:31:43;3.13;;;1.10;;
7657;SDS011;8462;53.156;8.220;2022-10-16T12:34:18;4.47;;;1.30;;
7657;SDS011;8462;53.156;8.220;2022-10-16T12:36:51;5.77;;;1.20;;
7657;SDS011;8462;53.156;8.220;2022-10-16T12:39:20;2.93;;;1.27;;
7657;SDS011;8462;53.156;8.220;2022-10-16T12:42:01;4.27;;;1.23;;
7657;SDS011;8462;53.156;8.220;2022-10-16T12:44:33;5.47;;;1.10;;
7657;SDS011;8462;53.156;8.220;2022-10-16T12:47:02;3.93;;;1.23;;
7657;SDS011;8462;53.156;8.220;2022-10-16T12:49:32;3.13;;;0.87;;
7657;SDS011;8462;53.156;8.220;2022-10-16T12:52:03;3.63;;;1.40;;
7657;SDS011;8462;53.156;8.220;2022-10-16T12:54:31;6.03;;;1.33;;
7657;SDS011;8462;53.156;8.220;2022-10-16T12:57:07;3.87;;;1.00;;
7657;SDS011;8462;53.156;8.220;2022-10-16T12:59:48;5.03;;;1.37;;
7657;SDS011;8462;53.156;8.220;2022-10-16T13:05:38;2.13;;;1.27;;
7657;SDS011;8462;53.156;8.220;2022-10-16T13:08:17;6.17;;;1.23;;
7657;SDS011;8462;53.156;8.220;2022-10-16T13:10:59;4.40;;;1.43;;
7657;SDS011;8462;53.156;8.220;2022-10-16T13:13:43;6.97;;;1.57;;
7657;SDS011;8462;53.156;8.220;2022-10-16T13:16:34;2.13;;;1.00;;
7657;SDS011;8462;53.156;8.220;2022-10-16T13:19:15;2.67;;;1.10;;
7657;SDS011;8462;53.156;8.220;2022-10-16T13:21:51;6.50;;;1.40;;
7657;SDS011;8462;53.156;8.220;2022-10-16T13:24:40;5.43;;;1.30;;
7657;SDS011;8462;53.156;8.220;2022-10-16T13:27:17;5.37;;;1.27;;
7657;SDS011;8462;53.156;8.220;2022-10-16T13:29:53;6.03;;;1.53;;
7657;SDS011;8462;53.156;8.220;2022-10-16T13:32:27;4.50;;;1.30;;
7657;SDS011;8462;53.156;8.220;2022-10-16T13:34:55;3.60;;;1.57;;
7657;SDS011;8462;53.156;8.220;2022-10-16T13:37:23;4.50;;;1.40;;
7657;SDS011;8462;53.156;8.220;2022-10-16T13:40:01;4.70;;;1.37;;
7657;SDS011;8462;53.156;8.220;2022-10-16T13:42:33;6.83;;;1.87;;
7657;SDS011;8462;53.156;8.220;2022-10-16T13:45:02;7.00;;;1.97;;
7657;SDS011;8462;53.156;8.220;2022-10-16T13:47:29;3.50;;;1.23;;
7657;SDS011;8462;53.156;8.220;2022-10-16T13:50:00;4.23;;;1.43;;
7657;SDS011;8462;53.156;8.220;2022-10-16T13:52:28;4.00;;;1.40;;
7657;SDS011;8462;53.156;8.220;2022-10-16T13:54:56;5.53;;;2.17;;
7657;SDS011;8462;53.156;8.220;2022-10-16T13:57:24;4.47;;;1.20;;
7657;SDS011;8462;53.156;8.220;2022-10-16T13:59:51;3.50;;;1.20;;
7657;SDS011;8462;53.156;8.220;2022-10-16T14:02:21;4.73;;;1.50;;
7657;SDS011;8462;53.156;8.220;2022-10-16T14:04:54;4.93;;;1.77;;
7657;SDS011;8462;53.156;8.220;2022-10-16T14:07:23;4.57;;;1.47;;
7657;SDS011;8462;53.156;8.220;2022-10-16T14:09:52;4.40;;;2.17;;
7657;SDS011;8462;53.156;8.220;2022-10-16T14:12:19;3.37;;;1.30;;
7657;SDS011;8462;53.156;8.220;2022-10-16T14:14:48;5.57;;;1.30;;
7657;SDS011;8462;53.156;8.220;2022-10-16T14:17:18;4.00;;;1.30;;
7657;SDS011;8462;53.156;8.220;2022-10-16T14:19:50;3.50;;;1.20;;
7657;SDS011;8462;53.156;8.220;2022-10-16T14:22:23;2.13;;;1.53;;
7657;SDS011;8462;53.156;8.220;2022-10-16T14:24:54;4.97;;;1.23;;
7657;SDS011;8462;53.156;8.220;2022-10-16T14:27:23;3.83;;;1.30;;
7657;SDS011;8462;53.156;8.220;2022-10-16T14:30:04;2.10;;;0.93;;
7657;SDS011;8462;53.156;8.220;2022-10-16T14:32:41;2.80;;;1.30;;
7657;SDS011;8462;53.156;8.220;2022-10-16T14:35:23;4.27;;;1.30;;
7657;SDS011;8462;53.156;8.220;2022-10-16T14:37:54;4.20;;;1.30;;
7657;SDS011;8462;53.156;8.220;2022-10-16T14:40:23;5.27;;;1.43;;
7657;SDS011;8462;53.156;8.220;2022-10-16T14:42:53;5.10;;;1.40;;
7657;SDS011;8462;53.156;8.220;2022-10-16T14:45:20;3.03;;;1.03;;
7657;SDS011;8462;53.156;8.220;2022-10-16T14:47:51;7.20;;;1.33;;
7657;SDS011;8462;53.156;8.220;2022-10-16T14:50:20;7.27;;;1.43;;
7657;SDS011;8462;53.156;8.220;2022-10-16T14:52:48;5.03;;;1.97;;
7657;SDS011;8462;53.156;8.220;2022-10-16T14:55:15;5.33;;;1.80;;
7657;SDS011;8462;53.156;8.220;2022-10-16T14:57:43;4.57;;;1.47;;
7657;SDS011;8462;53.156;8.220;2022-10-16T15:00:16;4.30;;;1.60;;
7657;SDS011;8462;53.156;8.220;2022-10-16T15:02:45;3.23;;;1.40;;
7657;SDS011;8462;53.156;8.220;2022-10-16T15:05:16;6.23;;;1.97;;
7657;SDS011;8462;53.156;8.220;2022-10-16T15:07:45;3.30;;;1.73;;
7657;SDS011;8462;53.156;8.220;2022-10-16T15:10:14;6.43;;;1.50;;
7657;SDS011;8462;53.156;8.220;2022-10-16T15:12:42;2.73;;;1.30;;
7657;SDS011;8462;53.156;8.220;2022-10-16T15:15:15;3.33;;;1.30;;
7657;SDS011;8462;53.156;8.220;2022-10-16T15:17:51;8.83;;;1.63;;
7657;SDS011;8462;53.156;8.220;2022-10-16T15:20:22;6.63;;;2.00;;
7657;SDS011;8462;53.156;8.220;2022-10-16T15:22:50;3.63;;;1.80;;
7657;SDS011;8462;53.156;8.220;2022-10-16T15:25:25;7.53;;;2.50;;
7657;SDS011;8462;53.156;8.220;2022-10-16T15:27:58;3.80;;;1.63;;
7657;SDS011;8462;53.156;8.220;2022-10-16T15:30:25;3.80;;;1.30;;
7657;SDS011;8462;53.156;8.220;2022-10-16T15:32:53;2.87;;;1.40;;
7657;SDS011;8462;53.156;8.220;2022-10-16T15:35:20;5.37;;;1.80;;
7657;SDS011;8462;53.156;8.220;2022-10-16T15:37:48;5.27;;;1.60;;
7657;SDS011;8462;53.156;8.220;2022-10-16T15:40:16;5.97;;;2.60;;
7657;SDS011;8462;53.156;8.220;2022-10-16T15:42:43;5.40;;;2.17;;
7657;SDS011;8462;53.156;8.220;2022-10-16T15:45:13;4.20;;;2.10;;